sensor_id;sensor_type;location;lat;lon;timestamp;P1;durP1;ratioP1;P2;durP2;ratioP2
12118;SDS011;6123;48.864;9.200;2024-02-04T00:00:42;0.20;;;0.20;;
12118;SDS011;6123;48.864;9.200;2024-02-04T00:03:07;0.65;;;0.30;;
12118;SDS011;6123;48.864;9.200;2024-02-04T00:05:33;0.30;;;0.20;;
12118;SDS011;6123;48.864;9.200;2024-02-04T00:07:59;0.10;;;0.10;;
12118;SDS011;6123;48.864;9.200;2024-02-04T00:10:24;0.10;;;0.10;;
12118;SDS011;6123;48.864;9.200;2024-02-04T00:12:51;0.20;;;0.20;;
12118;SDS011;6123;48.864;9.200;2024-02-04T00:15:17;0.30;;;0.20;;
12118;SDS011;6123;48.864;9.200;2024-02-04T00:17:42;0.57;;;0.20;;
12118;SDS011;6123;48.864;9.200;2024-02-04T00:20:08;0.10;;;0.10;;
12118;SDS011;6123;48.864;9.200;2024-02-04T00:22:34;0.28;;;0.10;;
12118;SDS011;6123;48.864;9.200;2024-02-04T00:25:00;0.20;;;0.20;;
12118;SDS011;6123;48.864;9.200;2024-02-04T00:27:35;0.30;;;0.20;;
12118;SDS011;6123;48.864;9.200;2024-02-04T00:30:00;0.20;;;0.20;;
12118;SDS011;6123;48.864;9.200;2024-02-04T00:32:26;0.25;;;0.25;;
12118;SDS011;6123;48.864;9.200;2024-02-04T00:34:52;0.10;;;0.10;;
12118;SDS011;6123;48.864;9.200;2024-02-04T00:37:18;0.30;;;0.13;;
12118;SDS011;6123;48.864;9.200;2024-02-04T00:39:44;0.17;;;0.17;;
12118;SDS011;6123;48.864;9.200;2024-02-04T00:42:09;0.50;;;0.30;;
12118;SDS011;6123;48.864;9.200;2024-02-04T00:44:35;0.65;;;0.20;;
12118;SDS011;6123;48.864;9.200;2024-02-04T00:47:01;0.55;;;0.30;;
12118;SDS011;6123;48.864;9.200;2024-02-04T00:49:27;0.17;;;0.17;;
12118;SDS011;6123;48.864;9.200;2024-02-04T00:51:52;0.30;;;0.30;;
12118;SDS011;6123;48.864;9.200;2024-02-04T00:54:18;0.28;;;0.28;;
12118;SDS011;6123;48.864;9.200;2024-02-04T00:56:44;0.20;;;0.20;;
12118;SDS011;6123;48.864;9.200;2024-02-04T00:59:09;0.10;;;0.10;;
12118;SDS011;6123;48.864;9.200;2024-02-04T01:01:35;0.10;;;0.10;;
12118;SDS011;6123;48.864;9.200;2024-02-04T01:04:00;0.10;;;0.10;;
12118;SDS011;6123;48.864;9.200;2024-02-04T01:06:26;0.28;;;0.22;;
12118;SDS011;6123;48.864;9.200;2024-02-04T01:08:53;0.22;;;0.10;;
12118;SDS011;6123;48.864;9.200;2024-02-04T01:11:18;0.20;;;0.20;;
12118;SDS011;6123;48.864;9.200;2024-02-04T01:13:44;0.15;;;0.15;;
12118;SDS011;6123;48.864;9.200;2024-02-04T01:16:09;0.17;;;0.17;;
12118;SDS011;6123;48.864;9.200;2024-02-04T01:18:35;0.10;;;0.10;;
12118;SDS011;6123;48.864;9.200;2024-02-04T01:21:00;0.10;;;0.10;;
12118;SDS011;6123;48.864;9.200;2024-02-04T01:23:26;0.10;;;0.10;;
12118;SDS011;6123;48.864;9.200;2024-02-04T01:25:51;0.10;;;0.10;;
12118;SDS011;6123;48.864;9.200;2024-02-04T01:28:17;0.20;;;0.10;;
12118;SDS011;6123;48.864;9.200;2024-02-04T01:30:42;0.10;;;0.10;;
12118;SDS011;6123;48.864;9.200;2024-02-04T01:33:08;0.03;;;0.03;;
12118;SDS011;6123;48.864;9.200;2024-02-04T01:35:33;0.10;;;0.10;;
12118;SDS011;6123;48.864;9.200;2024-02-04T01:37:59;0.20;;;0.10;;
12118;SDS011;6123;48.864;9.200;2024-02-04T01:40:24;0.20;;;0.20;;
12118;SDS011;6123;48.864;9.200;2024-02-04T01:42:50;0.20;;;0.17;;
12118;SDS011;6123;48.864;9.200;2024-02-04T01:45:15;0.10;;;0.10;;
12118;SDS011;6123;48.864;9.200;2024-02-04T01:47:41;0.75;;;0.20;;
12118;SDS011;6123;48.864;9.200;2024-02-04T01:50:07;0.10;;;0.10;;
12118;SDS011;6123;48.864;9.200;2024-02-04T01:52:33;0.03;;;0.03;;
12118;SDS011;6123;48.864;9.200;2024-02-04T01:55:03;0.10;;;0.10;;
12118;SDS011;6123;48.864;9.200;2024-02-04T01:57:30;0.10;;;0.10;;
12118;SDS011;6123;48.864;9.200;2024-02-04T02:00:02;0.10;;;0.10;;
12118;SDS011;6123;48.864;9.200;2024-02-04T02:02:29;0.20;;;0.10;;
12118;SDS011;6123;48.864;9.200;2024-02-04T02:04:55;0.17;;;0.10;;
12118;SDS011;6123;48.864;9.200;2024-02-04T02:07:22;0.03;;;0.00;;
12118;SDS011;6123;48.864;9.200;2024-02-04T02:09:52;0.10;;;0.10;;
12118;SDS011;6123;48.864;9.200;2024-02-04T02:12:24;0.10;;;0.10;;
12118;SDS011;6123;48.864;9.200;2024-02-04T02:18:04;0.47;;;0.10;;
12118;SDS011;6123;48.864;9.200;2024-02-04T02:23:29;0.10;;;0.10;;
12118;SDS011;6123;48.864;9.200;2024-02-04T02:25:59;0.20;;;0.20;;
12118;SDS011;6123;48.864;9.200;2024-02-04T02:28:26;0.40;;;0.00;;
12118;SDS011;6123;48.864;9.200;2024-02-04T02:30:52;0.00;;;0.00;;
12118;SDS011;6123;48.864;9.200;2024-02-04T02:33:17;0.00;;;0.00;;
12118;SDS011;6123;48.864;9.200;2024-02-04T02:35:43;0.00;;;0.00;;
12118;SDS011;6123;48.864;9.200;2024-02-04T02:38:16;0.00;;;0.00;;
12118;SDS011;6123;48.864;9.200;2024-02-04T02:40:59;0.45;;;0.17;;
12118;SDS011;6123;48.864;9.200;2024-02-04T02:43:28;0.00;;;0.00;;
12118;SDS011;6123;48.864;9.200;2024-02-04T02:45:55;0.10;;;0.10;;
12118;SDS011;6123;48.864;9.200;2024-02-04T02:48:21;0.10;;;0.10;;
12118;SDS011;6123;48.864;9.200;2024-02-04T02:50:48;0.10;;;0.10;;
12118;SDS011;6123;48.864;9.200;2024-02-04T02:53:14;0.08;;;0.08;;
12118;SDS011;6123;48.864;9.200;2024-02-04T02:55:40;0.00;;;0.00;;
12118;SDS011;6123;48.864;9.200;2024-02-04T02:58:06;0.10;;;0.10;;
12118;SDS011;6123;48.864;9.200;2024-02-04T03:00:32;0.05;;;0.05;;
12118;SDS011;6123;48.864;9.200;2024-02-04T03:02:58;0.00;;;0.00;;
12118;SDS011;6123;48.864;9.200;2024-02-04T03:05:24;0.00;;;0.00;;
12118;SDS011;6123;48.864;9.200;2024-02-04T03:07:49;1.25;;;0.10;;
12118;SDS011;6123;48.864;9.200;2024-02-04T03:10:15;0.20;;;0.10;;
12118;SDS011;6123;48.864;9.200;2024-02-04T03:12:40;0.00;;;0.00;;
12118;SDS011;6123;48.864;9.200;2024-02-04T03:15:06;0.00;;;0.00;;
12118;SDS011;6123;48.864;9.200;2024-02-04T03:17:32;0.00;;;0.00;;
12118;SDS011;6123;48.864;9.200;2024-02-04T03:19:57;0.00;;;0.00;;
12118;SDS011;6123;48.864;9.200;2024-02-04T03:22:23;0.00;;;0.00;;
12118;SDS011;6123;48.864;9.200;2024-02-04T03:24:48;0.10;;;0.10;;
12118;SDS011;6123;48.864;9.200;2024-02-04T03:27:15;0.20;;;0.20;;
12118;SDS011;6123;48.864;9.200;2024-02-04T03:29:41;0.10;;;0.10;;
12118;SDS011;6123;48.864;9.200;2024-02-04T03:32:06;0.13;;;0.10;;
12118;SDS011;6123;48.864;9.200;2024-02-04T03:34:32;0.30;;;0.30;;
12118;SDS011;6123;48.864;9.200;2024-02-04T03:36:58;0.25;;;0.25;;
12118;SDS011;6123;48.864;9.200;2024-02-04T03:39:23;0.20;;;0.20;;
12118;SDS011;6123;48.864;9.200;2024-02-04T03:41:49;0.20;;;0.20;;
12118;SDS011;6123;48.864;9.200;2024-02-04T03:44:15;0.20;;;0.20;;
12118;SDS011;6123;48.864;9.200;2024-02-04T03:46:40;0.22;;;0.17;;
12118;SDS011;6123;48.864;9.200;2024-02-04T03:49:06;0.52;;;0.20;;
12118;SDS011;6123;48.864;9.200;2024-02-04T03:51:32;0.20;;;0.20;;
12118;SDS011;6123;48.864;9.200;2024-02-04T03:53:58;0.10;;;0.10;;
12118;SDS011;6123;48.864;9.200;2024-02-04T03:56:23;0.70;;;0.30;;
12118;SDS011;6123;48.864;9.200;2024-02-04T03:58:49;0.20;;;0.20;;
12118;SDS011;6123;48.864;9.200;2024-02-04T04:01:15;0.10;;;0.10;;
12118;SDS011;6123;48.864;9.200;2024-02-04T04:03:41;0.20;;;0.20;;
12118;SDS011;6123;48.864;9.200;2024-02-04T04:06:08;0.35;;;0.30;;
12118;SDS011;6123;48.864;9.200;2024-02-04T04:08:34;0.20;;;0.20;;
12118;SDS011;6123;48.864;9.200;2024-02-04T04:11:00;0.20;;;0.20;;
12118;SDS011;6123;48.864;9.200;2024-02-04T04:13:26;0.20;;;0.20;;
12118;SDS011;6123;48.864;9.200;2024-02-04T04:15:51;0.22;;;0.20;;
12118;SDS011;6123;48.864;9.200;2024-02-04T04:18:16;0.38;;;0.20;;
12118;SDS011;6123;48.864;9.200;2024-02-04T04:20:42;0.30;;;0.30;;
12118;SDS011;6123;48.864;9.200;2024-02-04T04:23:08;0.30;;;0.30;;
12118;SDS011;6123;48.864;9.200;2024-02-04T04:25:33;0.30;;;0.28;;
12118;SDS011;6123;48.864;9.200;2024-02-04T04:27:59;0.10;;;0.10;;
12118;SDS011;6123;48.864;9.200;2024-02-04T04:30:24;0.50;;;0.40;;
12118;SDS011;6123;48.864;9.200;2024-02-04T04:32:50;0.20;;;0.17;;
12118;SDS011;6123;48.864;9.200;2024-02-04T04:35:15;0.15;;;0.15;;
12118;SDS011;6123;48.864;9.200;2024-02-04T04:37:41;0.40;;;0.20;;
12118;SDS011;6123;48.864;9.200;2024-02-04T04:40:07;0.13;;;0.13;;
12118;SDS011;6123;48.864;9.200;2024-02-04T04:42:33;0.40;;;0.30;;
12118;SDS011;6123;48.864;9.200;2024-02-04T04:44:58;1.23;;;0.20;;
12118;SDS011;6123;48.864;9.200;2024-02-04T04:47:24;0.25;;;0.20;;
12118;SDS011;6123;48.864;9.200;2024-02-04T04:49:49;0.40;;;0.40;;
12118;SDS011;6123;48.864;9.200;2024-02-04T04:52:16;0.28;;;0.28;;
12118;SDS011;6123;48.864;9.200;2024-02-04T04:54:42;0.20;;;0.20;;
12118;SDS011;6123;48.864;9.200;2024-02-04T04:57:07;0.30;;;0.30;;
12118;SDS011;6123;48.864;9.200;2024-02-04T04:59:33;0.68;;;0.22;;
12118;SDS011;6123;48.864;9.200;2024-02-04T05:02:01;0.30;;;0.30;;
12118;SDS011;6123;48.864;9.200;2024-02-04T05:04:26;0.20;;;0.20;;
12118;SDS011;6123;48.864;9.200;2024-02-04T05:06:52;0.13;;;0.13;;
12118;SDS011;6123;48.864;9.200;2024-02-04T05:09:17;0.85;;;0.20;;
12118;SDS011;6123;48.864;9.200;2024-02-04T05:11:43;0.15;;;0.10;;
12118;SDS011;6123;48.864;9.200;2024-02-04T05:14:09;0.38;;;0.10;;
12118;SDS011;6123;48.864;9.200;2024-02-04T05:16:34;0.00;;;0.00;;
12118;SDS011;6123;48.864;9.200;2024-02-04T05:19:01;0.10;;;0.10;;
12118;SDS011;6123;48.864;9.200;2024-02-04T05:21:27;0.20;;;0.20;;
12118;SDS011;6123;48.864;9.200;2024-02-04T05:23:52;0.10;;;0.10;;
12118;SDS011;6123;48.864;9.200;2024-02-04T05:26:18;0.98;;;0.00;;
12118;SDS011;6123;48.864;9.200;2024-02-04T05:28:43;0.00;;;0.00;;
12118;SDS011;6123;48.864;9.200;2024-02-04T05:31:09;0.00;;;0.00;;
12118;SDS011;6123;48.864;9.200;2024-02-04T05:33:35;0.10;;;0.10;;
12118;SDS011;6123;48.864;9.200;2024-02-04T05:36:00;0.30;;;0.10;;
12118;SDS011;6123;48.864;9.200;2024-02-04T05:38:26;0.10;;;0.10;;
12118;SDS011;6123;48.864;9.200;2024-02-04T05:40:51;0.10;;;0.10;;
12118;SDS011;6123;48.864;9.200;2024-02-04T05:43:17;0.17;;;0.17;;
12118;SDS011;6123;48.864;9.200;2024-02-04T05:45:43;0.08;;;0.08;;
12118;SDS011;6123;48.864;9.200;2024-02-04T05:48:09;0.05;;;0.05;;
12118;SDS011;6123;48.864;9.200;2024-02-04T05:50:35;0.00;;;0.00;;
12118;SDS011;6123;48.864;9.200;2024-02-04T05:53:00;0.10;;;0.10;;
12118;SDS011;6123;48.864;9.200;2024-02-04T05:55:26;0.20;;;0.20;;
12118;SDS011;6123;48.864;9.200;2024-02-04T05:57:51;0.10;;;0.10;;
12118;SDS011;6123;48.864;9.200;2024-02-04T06:00:17;0.00;;;0.00;;
12118;SDS011;6123;48.864;9.200;2024-02-04T06:02:43;0.10;;;0.10;;
12118;SDS011;6123;48.864;9.200;2024-02-04T06:05:09;0.20;;;0.20;;
12118;SDS011;6123;48.864;9.200;2024-02-04T06:07:37;0.03;;;0.00;;
12118;SDS011;6123;48.864;9.200;2024-02-04T06:10:02;0.05;;;0.05;;
12118;SDS011;6123;48.864;9.200;2024-02-04T06:12:28;0.00;;;0.00;;
12118;SDS011;6123;48.864;9.200;2024-02-04T06:14:54;0.00;;;0.00;;
12118;SDS011;6123;48.864;9.200;2024-02-04T06:17:20;0.20;;;0.20;;
12118;SDS011;6123;48.864;9.200;2024-02-04T06:19:45;0.10;;;0.10;;
12118;SDS011;6123;48.864;9.200;2024-02-04T06:22:11;0.00;;;0.00;;
12118;SDS011;6123;48.864;9.200;2024-02-04T06:24:37;0.10;;;0.10;;
12118;SDS011;6123;48.864;9.200;2024-02-04T06:27:04;0.10;;;0.10;;
12118;SDS011;6123;48.864;9.200;2024-02-04T06:29:29;0.00;;;0.00;;
12118;SDS011;6123;48.864;9.200;2024-02-04T06:31:55;0.10;;;0.00;;
12118;SDS011;6123;48.864;9.200;2024-02-04T06:34:21;0.10;;;0.10;;
12118;SDS011;6123;48.864;9.200;2024-02-04T06:36:46;0.00;;;0.00;;
12118;SDS011;6123;48.864;9.200;2024-02-04T06:39:12;0.00;;;0.00;;
12118;SDS011;6123;48.864;9.200;2024-02-04T06:41:38;0.15;;;0.15;;
12118;SDS011;6123;48.864;9.200;2024-02-04T06:44:03;0.13;;;0.10;;
12118;SDS011;6123;48.864;9.200;2024-02-04T06:46:29;0.20;;;0.20;;
12118;SDS011;6123;48.864;9.200;2024-02-04T06:48:55;0.00;;;0.00;;
12118;SDS011;6123;48.864;9.200;2024-02-04T06:51:21;0.20;;;0.10;;
12118;SDS011;6123;48.864;9.200;2024-02-04T06:53:47;0.15;;;0.10;;
12118;SDS011;6123;48.864;9.200;2024-02-04T06:56:12;0.40;;;0.20;;
12118;SDS011;6123;48.864;9.200;2024-02-04T06:58:38;0.10;;;0.10;;
12118;SDS011;6123;48.864;9.200;2024-02-04T07:01:04;0.10;;;0.10;;
12118;SDS011;6123;48.864;9.200;2024-02-04T07:03:30;0.20;;;0.10;;
12118;SDS011;6123;48.864;9.200;2024-02-04T07:05:57;0.10;;;0.10;;
12118;SDS011;6123;48.864;9.200;2024-02-04T07:08:23;0.10;;;0.10;;
12118;SDS011;6123;48.864;9.200;2024-02-04T07:10:49;0.20;;;0.20;;
12118;SDS011;6123;48.864;9.200;2024-02-04T07:13:15;0.10;;;0.10;;
12118;SDS011;6123;48.864;9.200;2024-02-04T07:15:40;0.10;;;0.10;;
12118;SDS011;6123;48.864;9.200;2024-02-04T07:18:06;0.10;;;0.10;;
12118;SDS011;6123;48.864;9.200;2024-02-04T07:20:31;0.10;;;0.10;;
12118;SDS011;6123;48.864;9.200;2024-02-04T07:22:57;0.10;;;0.10;;
12118;SDS011;6123;48.864;9.200;2024-02-04T07:25:22;0.00;;;0.00;;
12118;SDS011;6123;48.864;9.200;2024-02-04T07:27:48;0.10;;;0.10;;
12118;SDS011;6123;48.864;9.200;2024-02-04T07:30:14;0.05;;;0.00;;
12118;SDS011;6123;48.864;9.200;2024-02-04T07:32:39;0.00;;;0.00;;
12118;SDS011;6123;48.864;9.200;2024-02-04T07:35:05;0.20;;;0.20;;
12118;SDS011;6123;48.864;9.200;2024-02-04T07:37:31;0.10;;;0.10;;
12118;SDS011;6123;48.864;9.200;2024-02-04T07:39:57;0.10;;;0.10;;
12118;SDS011;6123;48.864;9.200;2024-02-04T07:42:23;0.13;;;0.10;;
12118;SDS011;6123;48.864;9.200;2024-02-04T07:44:48;0.10;;;0.10;;
12118;SDS011;6123;48.864;9.200;2024-02-04T07:47:14;0.17;;;0.17;;
12118;SDS011;6123;48.864;9.200;2024-02-04T07:49:40;0.10;;;0.10;;
12118;SDS011;6123;48.864;9.200;2024-02-04T07:52:05;0.13;;;0.13;;
12118;SDS011;6123;48.864;9.200;2024-02-04T07:54:31;0.10;;;0.10;;
12118;SDS011;6123;48.864;9.200;2024-02-04T07:56:56;0.10;;;0.10;;
12118;SDS011;6123;48.864;9.200;2024-02-04T07:59:22;0.20;;;0.10;;
12118;SDS011;6123;48.864;9.200;2024-02-04T08:01:47;0.60;;;0.38;;
12118;SDS011;6123;48.864;9.200;2024-02-04T08:04:13;0.20;;;0.20;;
12118;SDS011;6123;48.864;9.200;2024-02-04T08:06:40;0.20;;;0.20;;
12118;SDS011;6123;48.864;9.200;2024-02-04T08:09:05;0.10;;;0.10;;
12118;SDS011;6123;48.864;9.200;2024-02-04T08:11:31;0.22;;;0.22;;
12118;SDS011;6123;48.864;9.200;2024-02-04T08:13:57;0.30;;;0.30;;
12118;SDS011;6123;48.864;9.200;2024-02-04T08:16:22;0.40;;;0.40;;
12118;SDS011;6123;48.864;9.200;2024-02-04T08:18:48;0.20;;;0.20;;
12118;SDS011;6123;48.864;9.200;2024-02-04T08:21:13;0.15;;;0.15;;
12118;SDS011;6123;48.864;9.200;2024-02-04T08:23:39;0.22;;;0.22;;
12118;SDS011;6123;48.864;9.200;2024-02-04T08:26:05;0.20;;;0.20;;
12118;SDS011;6123;48.864;9.200;2024-02-04T08:28:31;0.28;;;0.28;;
12118;SDS011;6123;48.864;9.200;2024-02-04T08:30:56;0.32;;;0.30;;
12118;SDS011;6123;48.864;9.200;2024-02-04T08:33:22;0.40;;;0.40;;
12118;SDS011;6123;48.864;9.200;2024-02-04T08:35:48;0.25;;;0.20;;
12118;SDS011;6123;48.864;9.200;2024-02-04T08:38:14;0.50;;;0.50;;
12118;SDS011;6123;48.864;9.200;2024-02-04T08:40:40;0.40;;;0.40;;
12118;SDS011;6123;48.864;9.200;2024-02-04T08:43:05;0.20;;;0.20;;
12118;SDS011;6123;48.864;9.200;2024-02-04T08:45:30;0.38;;;0.38;;
12118;SDS011;6123;48.864;9.200;2024-02-04T08:47:56;0.28;;;0.28;;
12118;SDS011;6123;48.864;9.200;2024-02-04T08:50:22;0.40;;;0.40;;
12118;SDS011;6123;48.864;9.200;2024-02-04T08:52:47;0.10;;;0.10;;
12118;SDS011;6123;48.864;9.200;2024-02-04T08:55:12;0.25;;;0.25;;
12118;SDS011;6123;48.864;9.200;2024-02-04T08:57:38;0.20;;;0.20;;
12118;SDS011;6123;48.864;9.200;2024-02-04T09:00:04;0.40;;;0.40;;
12118;SDS011;6123;48.864;9.200;2024-02-04T09:02:34;0.20;;;0.20;;
12118;SDS011;6123;48.864;9.200;2024-02-04T09:05:00;0.20;;;0.20;;
12118;SDS011;6123;48.864;9.200;2024-02-04T09:07:25;0.10;;;0.10;;
12118;SDS011;6123;48.864;9.200;2024-02-04T09:09:51;1.70;;;0.20;;
12118;SDS011;6123;48.864;9.200;2024-02-04T09:12:16;0.17;;;0.17;;
12118;SDS011;6123;48.864;9.200;2024-02-04T09:14:42;0.20;;;0.17;;
12118;SDS011;6123;48.864;9.200;2024-02-04T09:17:07;0.10;;;0.10;;
12118;SDS011;6123;48.864;9.200;2024-02-04T09:19:34;0.30;;;0.30;;
12118;SDS011;6123;48.864;9.200;2024-02-04T09:22:00;0.20;;;0.10;;
12118;SDS011;6123;48.864;9.200;2024-02-04T09:24:26;0.22;;;0.22;;
12118;SDS011;6123;48.864;9.200;2024-02-04T09:26:52;0.17;;;0.17;;
12118;SDS011;6123;48.864;9.200;2024-02-04T09:29:18;0.20;;;0.20;;
12118;SDS011;6123;48.864;9.200;2024-02-04T09:31:44;0.25;;;0.10;;
12118;SDS011;6123;48.864;9.200;2024-02-04T09:34:10;0.10;;;0.10;;
12118;SDS011;6123;48.864;9.200;2024-02-04T09:36:35;0.32;;;0.30;;
12118;SDS011;6123;48.864;9.200;2024-02-04T09:39:01;0.10;;;0.10;;
12118;SDS011;6123;48.864;9.200;2024-02-04T09:41:26;0.68;;;0.32;;
12118;SDS011;6123;48.864;9.200;2024-02-04T09:43:52;0.25;;;0.20;;
12118;SDS011;6123;48.864;9.200;2024-02-04T09:46:18;0.30;;;0.20;;
12118;SDS011;6123;48.864;9.200;2024-02-04T09:48:47;0.05;;;0.05;;
12118;SDS011;6123;48.864;9.200;2024-02-04T09:51:16;0.15;;;0.15;;
12118;SDS011;6123;48.864;9.200;2024-02-04T09:53:43;0.10;;;0.05;;
12118;SDS011;6123;48.864;9.200;2024-02-04T09:56:10;0.15;;;0.10;;
12118;SDS011;6123;48.864;9.200;2024-02-04T09:58:37;0.10;;;0.05;;
12118;SDS011;6123;48.864;9.200;2024-02-04T10:01:06;0.00;;;0.00;;
12118;SDS011;6123;48.864;9.200;2024-02-04T10:03:34;1.02;;;0.10;;
12118;SDS011;6123;48.864;9.200;2024-02-04T10:06:00;0.10;;;0.10;;
12118;SDS011;6123;48.864;9.200;2024-02-04T10:08:26;0.00;;;0.00;;
12118;SDS011;6123;48.864;9.200;2024-02-04T10:10:51;0.75;;;0.10;;
12118;SDS011;6123;48.864;9.200;2024-02-04T10:13:19;0.10;;;0.10;;
12118;SDS011;6123;48.864;9.200;2024-02-04T10:15:46;1.33;;;0.20;;
12118;SDS011;6123;48.864;9.200;2024-02-04T10:18:12;0.32;;;0.32;;
12118;SDS011;6123;48.864;9.200;2024-02-04T10:20:38;0.00;;;0.00;;
12118;SDS011;6123;48.864;9.200;2024-02-04T10:23:03;0.03;;;0.03;;
12118;SDS011;6123;48.864;9.200;2024-02-04T10:25:29;0.47;;;0.10;;
12118;SDS011;6123;48.864;9.200;2024-02-04T10:27:54;0.20;;;0.10;;
12118;SDS011;6123;48.864;9.200;2024-02-04T10:30:20;0.10;;;0.10;;
12118;SDS011;6123;48.864;9.200;2024-02-04T10:32:47;0.10;;;0.10;;
12118;SDS011;6123;48.864;9.200;2024-02-04T10:35:15;0.40;;;0.17;;
12118;SDS011;6123;48.864;9.200;2024-02-04T10:37:44;0.20;;;0.20;;
12118;SDS011;6123;48.864;9.200;2024-02-04T10:40:12;0.20;;;0.20;;
12118;SDS011;6123;48.864;9.200;2024-02-04T10:42:38;0.20;;;0.20;;
12118;SDS011;6123;48.864;9.200;2024-02-04T10:45:07;0.10;;;0.10;;
12118;SDS011;6123;48.864;9.200;2024-02-04T10:47:35;0.25;;;0.25;;
12118;SDS011;6123;48.864;9.200;2024-02-04T10:50:02;0.10;;;0.10;;
12118;SDS011;6123;48.864;9.200;2024-02-04T10:52:30;0.25;;;0.25;;
12118;SDS011;6123;48.864;9.200;2024-02-04T10:55:02;0.40;;;0.28;;
12118;SDS011;6123;48.864;9.200;2024-02-04T10:57:31;1.10;;;0.20;;
12118;SDS011;6123;48.864;9.200;2024-02-04T10:59:57;0.38;;;0.38;;
12118;SDS011;6123;48.864;9.200;2024-02-04T11:02:25;0.47;;;0.20;;
12118;SDS011;6123;48.864;9.200;2024-02-04T11:04:51;0.50;;;0.50;;
12118;SDS011;6123;48.864;9.200;2024-02-04T11:07:19;0.20;;;0.20;;
12118;SDS011;6123;48.864;9.200;2024-02-04T11:09:46;0.22;;;0.10;;
12118;SDS011;6123;48.864;9.200;2024-02-04T11:12:14;0.47;;;0.40;;
12118;SDS011;6123;48.864;9.200;2024-02-04T11:14:41;1.02;;;0.30;;
12118;SDS011;6123;48.864;9.200;2024-02-04T11:17:36;0.10;;;0.10;;
12118;SDS011;6123;48.864;9.200;2024-02-04T11:20:10;0.43;;;0.20;;
12118;SDS011;6123;48.864;9.200;2024-02-04T11:25:46;0.10;;;0.10;;
12118;SDS011;6123;48.864;9.200;2024-02-04T11:28:16;0.10;;;0.10;;
12118;SDS011;6123;48.864;9.200;2024-02-04T11:30:44;0.10;;;0.10;;
12118;SDS011;6123;48.864;9.200;2024-02-04T11:33:10;0.22;;;0.10;;
12118;SDS011;6123;48.864;9.200;2024-02-04T11:35:37;0.10;;;0.10;;
12118;SDS011;6123;48.864;9.200;2024-02-04T11:38:03;0.10;;;0.10;;
12118;SDS011;6123;48.864;9.200;2024-02-04T11:40:35;0.10;;;0.10;;
12118;SDS011;6123;48.864;9.200;2024-02-04T11:43:03;0.13;;;0.13;;
12118;SDS011;6123;48.864;9.200;2024-02-04T11:45:30;0.30;;;0.30;;
12118;SDS011;6123;48.864;9.200;2024-02-04T11:48:01;0.40;;;0.22;;
12118;SDS011;6123;48.864;9.200;2024-02-04T11:50:30;0.28;;;0.20;;
12118;SDS011;6123;48.864;9.200;2024-02-04T11:53:12;0.10;;;0.10;;
12118;SDS011;6123;48.864;9.200;2024-02-04T11:55:39;0.20;;;0.20;;
12118;SDS011;6123;48.864;9.200;2024-02-04T11:58:06;0.35;;;0.30;;
12118;SDS011;6123;48.864;9.200;2024-02-04T12:00:35;0.22;;;0.22;;
12118;SDS011;6123;48.864;9.200;2024-02-04T12:03:01;0.10;;;0.10;;
12118;SDS011;6123;48.864;9.200;2024-02-04T12:05:28;0.30;;;0.30;;
12118;SDS011;6123;48.864;9.200;2024-02-04T12:07:56;0.30;;;0.30;;
12118;SDS011;6123;48.864;9.200;2024-02-04T12:10:21;0.63;;;0.30;;
12118;SDS011;6123;48.864;9.200;2024-02-04T12:12:47;0.17;;;0.17;;
12118;SDS011;6123;48.864;9.200;2024-02-04T12:15:13;0.20;;;0.20;;
12118;SDS011;6123;48.864;9.200;2024-02-04T12:17:39;0.22;;;0.10;;
12118;SDS011;6123;48.864;9.200;2024-02-04T12:20:05;0.20;;;0.20;;
12118;SDS011;6123;48.864;9.200;2024-02-04T12:22:31;0.10;;;0.10;;
12118;SDS011;6123;48.864;9.200;2024-02-04T12:24:58;0.20;;;0.20;;
12118;SDS011;6123;48.864;9.200;2024-02-04T12:27:24;0.40;;;0.40;;
12118;SDS011;6123;48.864;9.200;2024-02-04T12:29:51;0.28;;;0.25;;
12118;SDS011;6123;48.864;9.200;2024-02-04T12:32:17;0.40;;;0.40;;
12118;SDS011;6123;48.864;9.200;2024-02-04T12:34:47;0.20;;;0.20;;
12118;SDS011;6123;48.864;9.200;2024-02-04T12:37:13;0.60;;;0.40;;
12118;SDS011;6123;48.864;9.200;2024-02-04T12:39:39;0.20;;;0.20;;
12118;SDS011;6123;48.864;9.200;2024-02-04T12:42:05;0.40;;;0.28;;
12118;SDS011;6123;48.864;9.200;2024-02-04T12:44:30;0.43;;;0.38;;
12118;SDS011;6123;48.864;9.200;2024-02-04T12:46:56;0.32;;;0.32;;
12118;SDS011;6123;48.864;9.200;2024-02-04T12:49:22;0.20;;;0.20;;
12118;SDS011;6123;48.864;9.200;2024-02-04T12:51:48;0.10;;;0.10;;
12118;SDS011;6123;48.864;9.200;2024-02-04T12:54:14;0.30;;;0.30;;
12118;SDS011;6123;48.864;9.200;2024-02-04T12:56:40;0.45;;;0.43;;
12118;SDS011;6123;48.864;9.200;2024-02-04T12:59:09;0.22;;;0.22;;
12118;SDS011;6123;48.864;9.200;2024-02-04T13:01:36;0.35;;;0.20;;
12118;SDS011;6123;48.864;9.200;2024-02-04T13:04:02;0.30;;;0.30;;
12118;SDS011;6123;48.864;9.200;2024-02-04T13:06:28;0.22;;;0.22;;
12118;SDS011;6123;48.864;9.200;2024-02-04T13:08:54;0.10;;;0.10;;
12118;SDS011;6123;48.864;9.200;2024-02-04T13:11:23;0.20;;;0.20;;
12118;SDS011;6123;48.864;9.200;2024-02-04T13:13:49;0.30;;;0.30;;
12118;SDS011;6123;48.864;9.200;2024-02-04T13:16:15;0.30;;;0.30;;
12118;SDS011;6123;48.864;9.200;2024-02-04T13:18:42;0.17;;;0.17;;
12118;SDS011;6123;48.864;9.200;2024-02-04T13:21:07;0.20;;;0.20;;
12118;SDS011;6123;48.864;9.200;2024-02-04T13:23:33;0.32;;;0.20;;
12118;SDS011;6123;48.864;9.200;2024-02-04T13:25:59;0.35;;;0.35;;
12118;SDS011;6123;48.864;9.200;2024-02-04T13:28:25;0.30;;;0.30;;
12118;SDS011;6123;48.864;9.200;2024-02-04T13:30:50;0.28;;;0.28;;
12118;SDS011;6123;48.864;9.200;2024-02-04T13:33:16;0.28;;;0.28;;
12118;SDS011;6123;48.864;9.200;2024-02-04T13:35:41;0.40;;;0.40;;
12118;SDS011;6123;48.864;9.200;2024-02-04T13:38:07;0.30;;;0.20;;
12118;SDS011;6123;48.864;9.200;2024-02-04T13:40:33;0.20;;;0.20;;
12118;SDS011;6123;48.864;9.200;2024-02-04T13:42:59;0.73;;;0.20;;
12118;SDS011;6123;48.864;9.200;2024-02-04T13:45:25;0.52;;;0.20;;
12118;SDS011;6123;48.864;9.200;2024-02-04T13:47:50;0.20;;;0.10;;
12118;SDS011;6123;48.864;9.200;2024-02-04T13:50:16;0.40;;;0.40;;
12118;SDS011;6123;48.864;9.200;2024-02-04T13:52:41;0.28;;;0.28;;
12118;SDS011;6123;48.864;9.200;2024-02-04T13:55:07;0.30;;;0.30;;
12118;SDS011;6123;48.864;9.200;2024-02-04T13:57:33;0.38;;;0.22;;
12118;SDS011;6123;48.864;9.200;2024-02-04T13:59:59;0.20;;;0.20;;
12118;SDS011;6123;48.864;9.200;2024-02-04T14:02:25;0.28;;;0.28;;
12118;SDS011;6123;48.864;9.200;2024-02-04T14:04:53;0.30;;;0.30;;
12118;SDS011;6123;48.864;9.200;2024-02-04T14:07:19;0.30;;;0.30;;
12118;SDS011;6123;48.864;9.200;2024-02-04T14:09:44;1.40;;;0.30;;
12118;SDS011;6123;48.864;9.200;2024-02-04T14:12:10;0.30;;;0.30;;
12118;SDS011;6123;48.864;9.200;2024-02-04T14:14:37;0.93;;;0.40;;
12118;SDS011;6123;48.864;9.200;2024-02-04T14:17:04;0.25;;;0.25;;
12118;SDS011;6123;48.864;9.200;2024-02-04T14:19:29;0.30;;;0.30;;
12118;SDS011;6123;48.864;9.200;2024-02-04T14:21:55;0.20;;;0.20;;
12118;SDS011;6123;48.864;9.200;2024-02-04T14:24:21;0.15;;;0.15;;
12118;SDS011;6123;48.864;9.200;2024-02-04T14:26:46;0.10;;;0.10;;
12118;SDS011;6123;48.864;9.200;2024-02-04T14:29:12;0.50;;;0.47;;
12118;SDS011;6123;48.864;9.200;2024-02-04T14:31:38;0.45;;;0.45;;
12118;SDS011;6123;48.864;9.200;2024-02-04T14:34:04;0.50;;;0.50;;
12118;SDS011;6123;48.864;9.200;2024-02-04T14:36:29;0.63;;;0.60;;
12118;SDS011;6123;48.864;9.200;2024-02-04T14:38:55;2.40;;;1.05;;
12118;SDS011;6123;48.864;9.200;2024-02-04T14:41:22;1.08;;;0.98;;
12118;SDS011;6123;48.864;9.200;2024-02-04T14:43:48;0.50;;;0.50;;
12118;SDS011;6123;48.864;9.200;2024-02-04T14:46:14;0.30;;;0.30;;
12118;SDS011;6123;48.864;9.200;2024-02-04T14:48:39;0.30;;;0.30;;
12118;SDS011;6123;48.864;9.200;2024-02-04T14:51:05;0.40;;;0.40;;
12118;SDS011;6123;48.864;9.200;2024-02-04T14:53:30;0.30;;;0.30;;
12118;SDS011;6123;48.864;9.200;2024-02-04T14:55:56;0.32;;;0.32;;
12118;SDS011;6123;48.864;9.200;2024-02-04T14:58:22;0.43;;;0.30;;
12118;SDS011;6123;48.864;9.200;2024-02-04T15:00:48;1.90;;;0.35;;
12118;SDS011;6123;48.864;9.200;2024-02-04T15:03:14;0.35;;;0.35;;